Time;durP1;ratioP1;P1;durP2;ratioP2;P2;SDS_P1;SDS_P2;PMS_P1;PMS_P2;Temp;Humidity;BMP_temperature;BMP_pressure;BME280_temperature;BME280_humidity;BME280_pressure;Samples;Min_cycle;Max_cycle;Signal;HPM_P1;HPM_P2
2021/08/02 00:02:02;;;;;;;2.80;1.25;;;20.50;55.80;;;;;;6216084;28;20033;-74
2021/08/02 00:05:06;;;;;;;3.00;1.00;;;20.50;55.80;;;;;;6224850;28;20129;-74
2021/08/02 00:08:09;;;;;;;2.17;1.02;;;20.50;55.90;;;;;;6222569;28;20054;-74
2021/08/02 00:11:12;;;;;;;1.83;0.75;;;20.50;56.10;;;;;;6223268;28;20387;-74
2021/08/02 00:14:15;;;;;;;2.28;1.17;;;20.50;56.30;;;;;;6240105;28;20084;-75
2021/08/02 00:17:16;;;;;;;2.75;1.00;;;20.50;56.40;;;;;;6224739;28;20460;-75
2021/08/02 00:20:19;;;;;;;1.45;0.77;;;20.50;56.40;;;;;;6225939;28;20092;-74
2021/08/02 00:23:21;;;;;;;2.47;1.30;;;20.50;56.30;;;;;;6233151;28;20042;-74
2021/08/02 00:26:23;;;;;;;1.80;1.13;;;20.50;56.40;;;;;;6220214;28;20467;-74
2021/08/02 00:29:24;;;;;;;1.48;1.10;;;20.50;56.40;;;;;;6240715;28;20049;-75
2021/08/02 00:32:25;;;;;;;3.55;1.17;;;20.50;56.50;;;;;;6226452;28;20070;-75
2021/08/02 00:35:27;;;;;;;2.70;1.13;;;20.50;56.70;;;;;;6225720;28;20107;-74
2021/08/02 00:38:34;;;;;;;1.38;0.90;;;20.50;56.80;;;;;;6240901;28;20030;-74
2021/08/02 00:42:06;;;;;;;1.90;1.00;;;20.50;57.00;;;;;;6240157;28;20048;-74
2021/08/02 00:45:08;;;;;;;5.68;1.33;;;20.40;57.10;;;;;;6238682;28;20062;-74
2021/08/02 00:48:17;;;;;;;2.67;1.13;;;20.40;57.20;;;;;;6223463;28;20045;-74
2021/08/02 00:51:19;;;;;;;1.52;1.02;;;20.30;57.20;;;;;;6223565;28;20052;-74
2021/08/02 00:54:24;;;;;;;4.25;1.05;;;20.30;57.20;;;;;;6223650;28;20103;-74
2021/08/02 00:57:30;;;;;;;2.47;1.17;;;20.20;57.70;;;;;;6239807;28;20036;-74
2021/08/02 01:00:32;;;;;;;2.47;1.25;;;20.20;57.10;;;;;;6223470;28;20049;-74
2021/08/02 01:03:34;;;;;;;2.22;1.13;;;20.20;57.20;;;;;;6224187;28;20578;-74
2021/08/02 01:06:40;;;;;;;1.20;1.10;;;20.10;57.20;;;;;;6239232;28;20053;-74
2021/08/02 01:09:46;;;;;;;1.38;1.10;;;20.10;57.40;;;;;;6223516;28;20046;-74
2021/08/02 01:12:54;;;;;;;2.53;0.90;;;20.10;57.50;;;;;;6238669;28;20061;-74
2021/08/02 01:16:00;;;;;;;1.70;1.10;;;20.10;57.70;;;;;;6239400;28;20041;-75
2021/08/02 01:19:08;;;;;;;1.85;0.98;;;20.00;57.70;;;;;;6222588;28;20121;-75
2021/08/02 01:22:21;;;;;;;1.58;1.25;;;20.00;57.80;;;;;;6239141;28;20049;-74
2021/08/02 01:25:34;;;;;;;3.47;1.40;;;19.90;57.70;;;;;;6223943;28;20046;-74
2021/08/02 01:28:35;;;;;;;2.38;1.30;;;19.80;57.60;;;;;;6222777;28;20038;-74
2021/08/02 01:31:38;;;;;;;3.75;1.13;;;19.80;57.50;;;;;;6223650;28;20049;-74
2021/08/02 01:34:44;;;;;;;2.47;1.15;;;19.80;57.50;;;;;;6222968;28;20040;-74
2021/08/02 01:37:46;;;;;;;1.75;1.38;;;19.80;57.70;;;;;;6238966;28;20049;-74
2021/08/02 01:40:50;;;;;;;3.50;1.10;;;19.80;58.00;;;;;;6238944;28;20343;-74
2021/08/02 01:43:51;;;;;;;1.70;1.10;;;19.70;58.30;;;;;;6238842;28;20044;-74
2021/08/02 01:47:30;;;;;;;1.70;1.33;;;19.70;58.50;;;;;;6238772;28;20046;-74
2021/08/02 01:50:52;;;;;;;2.40;1.40;;;19.70;58.70;;;;;;6219944;28;20326;-75
2021/08/02 01:54:08;;;;;;;2.35;1.00;;;19.70;58.90;;;;;;6234773;28;20029;-74
2021/08/02 01:57:29;;;;;;;2.90;1.10;;;19.70;58.90;;;;;;6236071;28;20037;-74
2021/08/02 02:00:51;;;;;;;1.58;1.02;;;19.70;59.10;;;;;;6234775;28;20048;-74
2021/08/02 02:03:59;;;;;;;1.80;1.10;;;19.70;60.00;;;;;;6220574;28;20033;-74
2021/08/02 02:07:05;;;;;;;3.47;1.40;;;19.60;59.70;;;;;;6219350;28;20045;-74
2021/08/02 02:10:22;;;;;;;2.92;1.48;;;19.60;59.80;;;;;;6235981;28;20088;-74
2021/08/02 02:13:35;;;;;;;2.33;1.48;;;19.60;59.90;;;;;;6231491;28;20037;-75
2021/08/02 02:16:50;;;;;;;2.53;1.23;;;19.60;59.90;;;;;;6219881;28;20037;-74
2021/08/02 02:19:54;;;;;;;5.70;1.30;;;19.60;59.80;;;;;;6236373;28;20430;-75
2021/08/02 02:22:57;;;;;;;1.38;1.00;;;19.60;59.70;;;;;;6237154;28;20045;-75
2021/08/02 02:25:58;;;;;;;2.35;1.30;;;19.60;59.70;;;;;;6221682;28;20029;-74
2021/08/02 02:29:03;;;;;;;2.78;1.23;;;19.60;59.80;;;;;;6236743;28;20447;-74
2021/08/02 02:32:06;;;;;;;1.23;1.00;;;19.60;59.70;;;;;;6238353;28;20025;-75
2021/08/02 02:35:07;;;;;;;1.55;0.85;;;19.60;59.80;;;;;;6222703;28;20053;-74
2021/08/02 02:38:12;;;;;;;1.63;1.25;;;19.50;59.70;;;;;;6237697;28;20438;-74
2021/08/02 02:41:14;;;;;;;4.22;1.55;;;19.50;59.80;;;;;;6238028;28;20030;-74
2021/08/02 02:44:20;;;;;;;2.67;1.10;;;19.50;59.80;;;;;;6221510;28;20312;-74
2021/08/02 02:47:24;;;;;;;1.73;1.20;;;19.40;59.80;;;;;;6237867;28;20037;-75
2021/08/02 02:50:27;;;;;;;1.92;1.20;;;19.50;59.80;;;;;;6222480;28;20053;-74
2021/08/02 02:53:30;;;;;;;1.52;1.10;;;19.40;59.80;;;;;;6222574;28;20471;-74
2021/08/02 02:56:33;;;;;;;3.00;1.30;;;19.40;59.90;;;;;;6237974;28;20042;-74
2021/08/02 02:59:34;;;;;;;1.48;1.13;;;19.40;60.00;;;;;;6222011;28;20481;-74
2021/08/02 03:02:37;;;;;;;1.83;1.23;;;19.30;60.00;;;;;;6222274;28;20035;-74
2021/08/02 03:05:40;;;;;;;2.78;1.30;;;19.30;60.00;;;;;;6221240;28;20493;-74
2021/08/02 03:08:44;;;;;;;1.35;1.10;;;19.30;60.20;;;;;;6238720;28;20034;-74
2021/08/02 03:11:46;;;;;;;1.13;1.00;;;19.30;60.20;;;;;;6213169;28;20049;-74
2021/08/02 03:14:48;;;;;;;2.58;1.33;;;19.20;60.20;;;;;;6223264;28;20038;-74
2021/08/02 03:17:49;;;;;;;1.25;1.00;;;19.20;60.30;;;;;;6222440;28;20117;-74
2021/08/02 03:20:50;;;;;;;3.90;1.20;;;19.20;60.30;;;;;;6223559;28;20180;-75
2021/08/02 03:23:57;;;;;;;1.10;1.00;;;19.20;60.50;;;;;;6238835;28;20459;-75
2021/08/02 03:27:28;;;;;;;1.20;1.05;;;19.20;60.70;;;;;;6238432;28;20041;-75
2021/08/02 03:30:32;;;;;;;1.40;1.20;;;19.10;60.90;;;;;;6227707;28;20360;-76
2021/08/02 03:33:36;;;;;;;1.75;0.90;;;19.10;61.20;;;;;;6221669;28;20041;-72
2021/08/02 03:36:37;;;;;;;5.30;1.38;;;19.00;61.30;;;;;;6223316;28;20471;-73
2021/08/02 03:39:39;;;;;;;2.67;1.23;;;19.00;61.40;;;;;;6238526;28;20049;-73
2021/08/02 03:42:41;;;;;;;1.55;1.02;;;19.00;61.60;;;;;;6224235;28;20113;-73
2021/08/02 03:45:43;;;;;;;1.55;1.20;;;18.90;61.70;;;;;;6242634;28;20116;-73
2021/08/02 03:48:46;;;;;;;3.00;1.25;;;18.90;61.60;;;;;;6242553;28;20034;-73
2021/08/02 03:51:49;;;;;;;4.82;1.30;;;18.90;61.60;;;;;;6242682;28;20177;-73
2021/08/02 03:54:50;;;;;;;4.70;1.38;;;19.00;61.70;;;;;;6226060;28;20038;-74
2021/08/02 03:57:51;;;;;;;2.78;1.20;;;18.90;61.90;;;;;;6226813;28;20108;-73
2021/08/02 04:00:52;;;;;;;10.23;1.58;;;18.90;62.00;;;;;;6226093;28;20049;-73
2021/08/02 04:03:53;;;;;;;2.00;1.42;;;18.90;62.00;;;;;;6226907;28;20433;-73
2021/08/02 04:06:54;;;;;;;9.65;1.45;;;18.90;62.20;;;;;;6242033;28;20455;-73
2021/08/02 04:09:55;;;;;;;3.88;1.67;;;18.90;62.30;;;;;;6225716;28;20085;-73
2021/08/02 04:12:57;;;;;;;7.22;1.65;;;18.90;62.30;;;;;;6242146;28;20042;-73
2021/08/02 04:15:58;;;;;;;2.15;1.73;;;18.90;62.30;;;;;;6242116;28;20041;-74
2021/08/02 04:18:59;;;;;;;5.78;1.45;;;18.90;62.30;;;;;;6243023;28;20041;-73
2021/08/02 04:22:00;;;;;;;3.25;1.27;;;18.90;62.20;;;;;;6242803;28;20100;-73
2021/08/02 04:25:01;;;;;;;3.97;1.58;;;18.90;62.10;;;;;;6226493;28;20447;-73
2021/08/02 04:28:02;;;;;;;2.05;1.65;;;18.90;61.90;;;;;;6227170;28;20458;-73
2021/08/02 04:31:03;;;;;;;2.83;1.25;;;18.90;61.90;;;;;;6242728;28;20107;-73
2021/08/02 04:34:05;;;;;;;2.08;1.25;;;18.90;61.70;;;;;;6227807;28;20100;-73
2021/08/02 04:37:06;;;;;;;8.25;1.30;;;19.00;61.70;;;;;;6242800;28;20124;-73
2021/08/02 04:40:07;;;;;;;3.20;1.20;;;19.00;61.70;;;;;;6243611;28;20100;-73
2021/08/02 04:43:08;;;;;;;2.28;1.17;;;18.90;61.60;;;;;;6244204;28;20486;-73
2021/08/02 04:46:10;;;;;;;3.08;1.30;;;19.00;61.70;;;;;;6232479;28;20124;-74
2021/08/02 04:49:11;;;;;;;1.98;1.20;;;19.00;61.70;;;;;;6237669;28;20456;-74
2021/08/02 04:52:12;;;;;;;1.98;1.40;;;19.00;61.60;;;;;;6239285;28;20064;-74
2021/08/02 04:55:13;;;;;;;3.70;1.30;;;19.00;61.60;;;;;;6228605;28;20041;-73
2021/08/02 04:58:14;;;;;;;2.08;1.27;;;19.00;61.50;;;;;;6230249;28;20038;-73
2021/08/02 05:01:16;;;;;;;9.10;1.40;;;19.00;61.40;;;;;;6244127;28;20041;-74
2021/08/02 05:04:17;;;;;;;1.60;1.30;;;18.90;61.20;;;;;;6225867;28;20034;-74
2021/08/02 05:07:18;;;;;;;6.25;1.73;;;18.90;61.20;;;;;;6225283;28;20042;-74
2021/08/02 05:10:19;;;;;;;3.67;1.30;;;18.90;61.20;;;;;;6226344;28;20048;-77
2021/08/02 05:13:20;;;;;;;2.47;1.08;;;18.90;61.30;;;;;;6227081;28;20034;-74
2021/08/02 05:16:21;;;;;;;2.13;1.25;;;18.90;61.00;;;;;;6240188;28;20034;-74
2021/08/02 05:19:22;;;;;;;7.75;1.42;;;18.90;61.10;;;;;;6226289;28;20072;-75
2021/08/02 05:22:23;;;;;;;1.80;1.15;;;18.90;61.00;;;;;;6223865;28;20069;-75
2021/08/02 05:25:24;;;;;;;3.55;1.13;;;18.90;61.00;;;;;;6223104;28;20034;-75
2021/08/02 05:28:25;;;;;;;1.13;1.05;;;18.90;61.00;;;;;;6223077;28;20049;-74
2021/08/02 05:31:26;;;;;;;5.03;1.35;;;18.90;61.00;;;;;;6223046;28;20038;-74
2021/08/02 05:34:27;;;;;;;1.75;1.30;;;18.90;61.00;;;;;;6223814;28;20045;-74
2021/08/02 05:37:28;;;;;;;4.75;1.15;;;18.90;61.00;;;;;;6223347;28;20030;-74
2021/08/02 05:40:30;;;;;;;5.82;1.38;;;19.00;60.90;;;;;;6223881;28;20042;-74
2021/08/02 05:43:31;;;;;;;2.80;1.23;;;19.00;60.90;;;;;;6239528;28;20478;-75
2021/08/02 05:46:32;;;;;;;5.28;1.42;;;19.00;60.90;;;;;;6223976;28;20505;-74
2021/08/02 05:49:33;;;;;;;4.05;1.40;;;19.10;60.90;;;;;;6223552;28;20034;-74
2021/08/02 05:52:34;;;;;;;3.83;1.10;;;19.10;60.80;;;;;;6239041;28;20038;-75
2021/08/02 05:55:35;;;;;;;4.13;1.42;;;19.10;60.80;;;;;;6239139;28;20030;-75
2021/08/02 05:58:36;;;;;;;6.77;1.53;;;19.10;61.00;;;;;;6176104;28;1363639;-74
2021/08/02 06:01:37;;;;;;;2.15;1.55;;;19.10;61.00;;;;;;6240026;28;20117;-74
2021/08/02 06:04:39;;;;;;;2.83;1.48;;;19.20;61.20;;;;;;6241215;28;20355;-75
2021/08/02 06:07:42;;;;;;;2.88;1.35;;;18.80;61.00;;;;;;6238681;28;20030;-75
2021/08/02 06:10:43;;;;;;;3.33;1.70;;;19.20;61.40;;;;;;6223015;28;20135;-74
2021/08/02 06:13:44;;;;;;;4.43;1.48;;;19.20;61.30;;;;;;6225080;28;20436;-74
2021/08/02 06:16:45;;;;;;;2.33;1.35;;;19.20;61.40;;;;;;6224536;28;20371;-74
2021/08/02 06:19:46;;;;;;;2.78;1.60;;;19.30;61.40;;;;;;6239327;28;20030;-74
2021/08/02 06:22:47;;;;;;;2.00;1.33;;;19.30;61.30;;;;;;6223343;28;20347;-75
2021/08/02 06:25:48;;;;;;;2.95;1.15;;;19.40;61.20;;;;;;6224172;28;20451;-74
2021/08/02 06:28:50;;;;;;;6.28;1.50;;;19.50;61.00;;;;;;6239588;28;20169;-74
2021/08/02 06:31:51;;;;;;;3.92;1.52;;;19.50;61.00;;;;;;6225039;28;20332;-74
2021/08/02 06:34:52;;;;;;;2.90;1.77;;;19.60;60.60;;;;;;6206612;28;20029;-74
2021/08/02 06:37:54;;;;;;;3.78;1.70;;;19.80;60.30;;;;;;6222370;28;20041;-74
2021/08/02 06:40:55;;;;;;;4.70;1.60;;;19.70;59.80;;;;;;6238965;28;20056;-74
2021/08/02 06:43:56;;;;;;;2.35;1.30;;;19.70;59.50;;;;;;6223708;28;20034;-74
2021/08/02 06:46:57;;;;;;;2.85;1.45;;;19.80;59.40;;;;;;6238957;28;20083;-74
2021/08/02 06:49:58;;;;;;;3.38;1.73;;;19.90;59.30;;;;;;6239149;28;20095;-74
2021/08/02 06:52:59;;;;;;;3.47;1.17;;;20.10;58.60;;;;;;6222490;28;20030;-74
2021/08/02 06:56:01;;;;;;;3.65;1.92;;;20.00;59.00;;;;;;6223110;28;20088;-74
2021/08/02 06:59:02;;;;;;;3.03;1.33;;;20.20;58.80;;;;;;6223173;28;20052;-74
2021/08/02 07:02:03;;;;;;;1.60;1.42;;;20.30;58.80;;;;;;6223236;28;20026;-74
2021/08/02 07:05:04;;;;;;;1.88;1.38;;;20.40;58.50;;;;;;6222609;28;20520;-75
2021/08/02 07:08:05;;;;;;;3.78;2.15;;;20.50;58.20;;;;;;6222037;28;20371;-74
2021/08/02 07:11:07;;;;;;;2.42;1.42;;;20.60;57.90;;;;;;6222190;28;20034;-75
2021/08/02 07:14:08;;;;;;;2.83;1.60;;;20.70;57.90;;;;;;6222609;28;20038;-74
2021/08/02 07:17:09;;;;;;;3.75;2.00;;;20.70;57.80;;;;;;6222618;28;20426;-74
2021/08/02 07:20:11;;;;;;;3.00;2.20;;;20.80;57.60;;;;;;6226779;28;20065;-74
2021/08/02 07:23:12;;;;;;;6.43;2.00;;;20.90;57.60;;;;;;6243702;28;20033;-74
2021/08/02 07:26:14;;;;;;;5.10;2.47;;;20.90;57.40;;;;;;6227099;28;20041;-74
2021/08/02 07:29:15;;;;;;;3.42;2.60;;;21.00;57.00;;;;;;6227617;28;20114;-74
2021/08/02 07:32:16;;;;;;;4.05;1.92;;;21.10;57.00;;;;;;6243648;28;20034;-74
2021/08/02 07:35:17;;;;;;;3.25;1.92;;;21.20;56.80;;;;;;6227600;28;20034;-75
2021/08/02 07:38:18;;;;;;;7.95;2.58;;;21.30;56.50;;;;;;6227452;28;20345;-76
2021/08/02 07:41:19;;;;;;;6.78;3.00;;;21.30;56.30;;;;;;6242674;28;20061;-75
2021/08/02 07:44:20;;;;;;;3.67;2.38;;;21.40;56.20;;;;;;6242879;28;20030;-75
2021/08/02 07:47:21;;;;;;;4.82;2.75;;;21.60;56.00;;;;;;6226379;28;20041;-74
2021/08/02 07:50:22;;;;;;;2.97;2.38;;;21.70;55.80;;;;;;6226841;28;20336;-74
2021/08/02 07:53:24;;;;;;;4.22;2.10;;;21.80;55.50;;;;;;6226398;28;20038;-74
2021/08/02 07:56:27;;;;;;;6.35;2.22;;;21.90;55.40;;;;;;6225777;28;20038;-74
2021/08/02 07:59:29;;;;;;;4.05;2.50;;;22.10;55.30;;;;;;6227952;28;20109;-74
2021/08/02 08:02:30;;;;;;;5.38;2.20;;;22.20;54.90;;;;;;6227739;28;20068;-74
2021/08/02 08:05:31;;;;;;;2.97;1.98;;;22.40;54.60;;;;;;6226962;28;20042;-73
2021/08/02 08:08:32;;;;;;;2.65;1.73;;;22.50;54.40;;;;;;6226890;28;20438;-73
2021/08/02 08:11:33;;;;;;;3.40;2.05;;;22.60;54.10;;;;;;6226791;28;20038;-74
2021/08/02 08:14:34;;;;;;;6.53;1.75;;;22.70;53.70;;;;;;6243162;28;20478;-74
2021/08/02 08:17:36;;;;;;;9.55;2.00;;;22.80;53.70;;;;;;6227299;28;20429;-74
2021/08/02 08:20:37;;;;;;;6.55;2.08;;;22.90;53.60;;;;;;6227615;28;20034;-73
2021/08/02 08:23:38;;;;;;;3.95;1.90;;;23.00;53.20;;;;;;6227282;28;20034;-74
2021/08/02 08:26:39;;;;;;;3.58;1.92;;;23.10;53.10;;;;;;6226919;28;20048;-73
2021/08/02 08:29:40;;;;;;;3.25;2.17;;;23.20;53.00;;;;;;6225157;28;20112;-74
2021/08/02 08:32:41;;;;;;;7.28;1.85;;;23.20;52.60;;;;;;6227214;28;20113;-74
2021/08/02 08:35:43;;;;;;;4.05;1.83;;;23.30;52.40;;;;;;6225802;28;20045;-74
2021/08/02 08:38:44;;;;;;;3.92;2.13;;;23.30;52.30;;;;;;6226387;28;20100;-74
2021/08/02 08:41:46;;;;;;;2.28;1.50;;;23.30;52.20;;;;;;6209789;28;20431;-74
2021/08/02 08:44:47;;;;;;;3.00;2.28;;;23.40;52.00;;;;;;6227172;28;20049;-74
2021/08/02 08:47:49;;;;;;;2.78;1.67;;;23.50;51.70;;;;;;6226315;28;20426;-74
2021/08/02 08:50:51;;;;;;;5.32;2.17;;;23.50;51.60;;;;;;6225874;28;20420;-76
2021/08/02 08:53:53;;;;;;;5.97;1.92;;;23.50;51.50;;;;;;6226715;28;20490;-74
2021/08/02 08:56:54;;;;;;;4.18;1.73;;;23.50;51.30;;;;;;6226705;28;20076;-74
2021/08/02 08:59:55;;;;;;;4.47;1.95;;;23.50;51.20;;;;;;6225146;28;20471;-74
2021/08/02 09:02:56;;;;;;;3.58;1.52;;;23.70;51.10;;;;;;6226470;28;20030;-75
2021/08/02 09:06:03;;;;;;;3.97;1.48;;;23.90;50.80;;;;;;6226693;28;20096;-74
2021/08/02 09:09:04;;;;;;;2.17;1.98;;;23.90;50.10;;;;;;6244855;28;20040;-74
2021/08/02 09:12:13;;;;;;;2.70;1.40;;;24.00;50.00;;;;;;6231780;28;20038;-74
2021/08/02 09:15:14;;;;;;;4.75;2.08;;;24.10;49.80;;;;;;6226480;28;20040;-74
2021/08/02 09:18:23;;;;;;;2.40;1.52;;;24.30;49.60;;;;;;6226159;28;20050;-75
2021/08/02 09:21:25;;;;;;;1.83;1.42;;;24.40;49.10;;;;;;6226149;28;20042;-74
2021/08/02 09:24:32;;;;;;;3.35;1.50;;;24.50;48.60;;;;;;6241210;28;20049;-76
2021/08/02 09:27:35;;;;;;;2.97;1.50;;;24.40;48.20;;;;;;6226124;28;20038;-75
2021/08/02 09:30:36;;;;;;;1.65;1.48;;;24.40;48.10;;;;;;6225860;28;20518;-74
2021/08/02 09:33:44;;;;;;;6.30;2.20;;;24.40;48.10;;;;;;6225523;28;20037;-74
2021/08/02 09:36:47;;;;;;;2.35;1.27;;;24.50;48.20;;;;;;6223705;28;20367;-76
2021/08/02 09:39:48;;;;;;;6.18;1.60;;;24.50;47.80;;;;;;6225630;28;20041;-75
2021/08/02 09:42:56;;;;;;;6.63;1.30;;;24.60;47.70;;;;;;6240685;28;20041;-74
2021/08/02 09:46:03;;;;;;;2.47;1.33;;;24.70;47.20;;;;;;6241074;28;20041;-75
2021/08/02 09:49:04;;;;;;;2.85;1.10;;;24.90;47.10;;;;;;6225641;28;20103;-75
2021/08/02 09:52:08;;;;;;;1.65;1.00;;;24.90;46.30;;;;;;6240499;28;20414;-75
2021/08/02 09:55:12;;;;;;;3.67;1.15;;;25.00;46.00;;;;;;6225341;28;20037;-75
2021/08/02 09:58:21;;;;;;;1.33;1.13;;;25.10;46.00;;;;;;6240617;28;20053;-75
2021/08/02 10:01:22;;;;;;;3.85;1.10;;;25.10;45.80;;;;;;6225117;28;20046;-74
2021/08/02 10:04:24;;;;;;;1.40;1.08;;;25.20;45.50;;;;;;6225859;28;20034;-75
2021/08/02 10:07:26;;;;;;;1.20;0.95;;;25.20;45.10;;;;;;6226594;28;20049;-75
2021/08/02 10:10:27;;;;;;;3.20;1.13;;;25.30;45.00;;;;;;6222981;28;20133;-75
2021/08/02 10:13:30;;;;;;;2.67;1.10;;;25.30;44.80;;;;;;6222867;28;20065;-76
2021/08/02 10:16:32;;;;;;;2.28;1.30;;;25.40;44.80;;;;;;6239915;28;20046;-75
2021/08/02 10:19:40;;;;;;;2.90;1.73;;;25.40;44.50;;;;;;6223786;28;20034;-75
2021/08/02 10:22:43;;;;;;;2.42;1.08;;;25.50;44.40;;;;;;6239642;28;20030;-75
2021/08/02 10:25:44;;;;;;;1.63;1.05;;;25.70;44.10;;;;;;6239948;28;20038;-76
2021/08/02 10:28:53;;;;;;;2.30;1.13;;;25.80;43.80;;;;;;6224377;28;20133;-75
2021/08/02 10:31:55;;;;;;;1.90;1.15;;;25.80;43.50;;;;;;6224999;28;20130;-75
2021/08/02 10:34:59;;;;;;;2.47;1.00;;;25.90;43.40;;;;;;6240080;28;20064;-75
2021/08/02 10:38:06;;;;;;;1.73;1.13;;;26.10;43.30;;;;;;6239846;28;20061;-75
2021/08/02 10:41:07;;;;;;;8.88;0.90;;;26.10;42.90;;;;;;6239442;28;20064;-75
2021/08/02 10:44:16;;;;;;;0.80;0.80;;;26.10;42.90;;;;;;6224218;28;20042;-75
2021/08/02 10:47:17;;;;;;;2.72;1.15;;;26.20;43.10;;;;;;6239443;28;20033;-75
2021/08/02 10:50:26;;;;;;;2.25;1.20;;;26.30;42.90;;;;;;6224357;28;20038;-75
2021/08/02 10:53:28;;;;;;;1.70;1.20;;;26.30;42.80;;;;;;6223828;28;20533;-74
2021/08/02 10:56:31;;;;;;;2.70;1.13;;;26.40;42.60;;;;;;6238682;28;20059;-75
2021/08/02 10:59:38;;;;;;;3.33;1.00;;;26.40;42.40;;;;;;6239296;28;20045;-74
2021/08/02 11:02:55;;;;;;;1.42;0.90;;;26.50;42.00;;;;;;6240398;28;20060;-74
2021/08/02 11:05:57;;;;;;;2.83;1.00;;;27.20;40.60;;;;;;6239010;28;20371;-76
2021/08/02 11:08:58;;;;;;;2.42;0.98;;;28.20;38.60;;;;;;6223098;28;20038;-74
2021/08/02 11:12:13;;;;;;;2.83;0.93;;;29.00;37.00;;;;;;6223356;28;20042;-76
2021/08/02 11:15:15;;;;;;;3.60;2.13;;;29.80;35.90;;;;;;6239503;28;20041;-73
2021/08/02 11:18:24;;;;;;;2.28;0.90;;;30.40;34.90;;;;;;6239386;28;20143;-74
2021/08/02 11:21:26;;;;;;;1.17;0.70;;;30.90;33.40;;;;;;6222880;28;20030;-75
2021/08/02 11:24:29;;;;;;;2.40;0.90;;;31.40;33.10;;;;;;6239383;28;20030;-75
2021/08/02 11:27:30;;;;;;;1.35;0.82;;;31.90;32.40;;;;;;6238872;28;20041;-75
2021/08/02 11:30:32;;;;;;;0.73;0.70;;;32.40;31.90;;;;;;6239486;28;20351;-75
2021/08/02 11:33:33;;;;;;;0.93;0.73;;;32.90;31.10;;;;;;6240100;28;20045;-75
2021/08/02 11:36:34;;;;;;;5.47;0.80;;;33.20;30.20;;;;;;6238795;28;20030;-75
2021/08/02 11:39:38;;;;;;;1.50;0.73;;;33.10;29.60;;;;;;6222800;28;20463;-74
2021/08/02 11:42:42;;;;;;;0.90;0.75;;;33.00;29.20;;;;;;6223613;28;20411;-74
2021/08/02 11:45:43;;;;;;;1.30;0.80;;;32.80;29.20;;;;;;6238855;28;20117;-75
2021/08/02 11:48:45;;;;;;;1.60;0.70;;;32.90;29.40;;;;;;6238869;28;20034;-74
2021/08/02 11:51:47;;;;;;;4.60;0.80;;;32.90;29.40;;;;;;6238760;28;20030;-74
2021/08/02 11:55:04;;;;;;;1.45;0.80;;;32.80;29.40;;;;;;6238883;28;20103;-74
2021/08/02 11:58:06;;;;;;;1.80;0.80;;;32.70;29.40;;;;;;6223142;28;20121;-74
2021/08/02 12:01:08;;;;;;;0.75;0.68;;;32.90;29.30;;;;;;6222831;28;20048;-74
2021/08/02 12:04:09;;;;;;;1.15;0.70;;;32.90;29.20;;;;;;6224951;28;20045;-74
2021/08/02 12:07:21;;;;;;;2.60;1.27;;;33.00;29.00;;;;;;6242245;28;20389;-76
2021/08/02 12:10:24;;;;;;;2.30;0.93;;;33.10;28.70;;;;;;6199533;28;20490;-75
2021/08/02 12:13:38;;;;;;;2.20;0.93;;;33.30;28.60;;;;;;6225570;28;20034;-74
2021/08/02 12:16:39;;;;;;;1.55;0.88;;;33.60;28.20;;;;;;6224290;28;20042;-75
2021/08/02 12:19:48;;;;;;;1.17;0.75;;;33.70;28.00;;;;;;6225011;28;20329;-74
2021/08/02 12:22:49;;;;;;;2.95;0.75;;;33.90;27.70;;;;;;6224659;28;20030;-74
2021/08/02 12:25:50;;;;;;;1.63;0.80;;;34.10;27.40;;;;;;6239506;28;20037;-74
2021/08/02 12:28:51;;;;;;;2.50;0.95;;;34.20;27.30;;;;;;6224987;28;20033;-74
2021/08/02 12:31:57;;;;;;;1.33;0.80;;;34.30;27.00;;;;;;6240847;28;20454;-74
2021/08/02 12:34:58;;;;;;;7.10;0.80;;;34.50;26.70;;;;;;6239233;28;20033;-75
2021/08/02 12:38:02;;;;;;;2.05;0.98;;;34.50;26.40;;;;;;6240063;28;20038;-74
2021/08/02 12:41:07;;;;;;;1.75;0.75;;;34.50;26.40;;;;;;6224383;28;20475;-74
2021/08/02 12:44:08;;;;;;;2.22;0.88;;;34.60;26.20;;;;;;6239845;28;20025;-74
2021/08/02 12:47:09;;;;;;;1.20;0.77;;;34.70;25.90;;;;;;6223856;28;20057;-75
2021/08/02 12:50:12;;;;;;;2.08;0.60;;;34.90;25.80;;;;;;6239214;28;20045;-75
2021/08/02 12:53:13;;;;;;;3.60;0.70;;;35.20;25.80;;;;;;6239614;28;20117;-75
2021/08/02 12:56:14;;;;;;;3.03;0.80;;;35.60;25.20;;;;;;6239356;28;20117;-74
2021/08/02 12:59:16;;;;;;;1.42;0.60;;;35.80;24.90;;;;;;6238855;28;20046;-75
2021/08/02 13:02:17;;;;;;;0.60;0.60;;;36.00;24.90;;;;;;6240597;28;20038;-74
2021/08/02 13:05:18;;;;;;;1.45;0.70;;;36.30;24.20;;;;;;6224118;28;20042;-75
2021/08/02 13:08:19;;;;;;;0.70;0.70;;;36.60;24.00;;;;;;6223375;28;20454;-75
2021/08/02 13:11:20;;;;;;;1.20;0.82;;;36.80;23.80;;;;;;6221373;28;20057;-75
2021/08/02 13:14:21;;;;;;;3.53;0.90;;;37.00;23.40;;;;;;6238098;28;20117;-75
2021/08/02 13:17:23;;;;;;;1.10;0.90;;;37.00;23.40;;;;;;6223404;28;20113;-75
2021/08/02 13:20:24;;;;;;;1.73;0.77;;;37.40;23.10;;;;;;6223781;28;20113;-77
2021/08/02 13:29:47;;;;;;;1.15;0.80;;;38.60;22.00;;;;;;6223445;28;20375;-75
2021/08/02 13:32:48;;;;;;;3.53;0.88;;;39.40;21.70;;;;;;6225051;28;20038;-75
2021/08/02 13:35:49;;;;;;;0.65;0.65;;;40.00;21.00;;;;;;6227661;28;20029;-74
2021/08/02 13:38:50;;;;;;;14.57;0.70;;;40.40;20.60;;;;;;6232173;28;20025;-74
2021/08/02 13:41:52;;;;;;;3.13;0.80;;;40.60;20.30;;;;;;6243884;28;20045;-75
2021/08/02 13:44:53;;;;;;;1.95;0.90;;;40.60;20.20;;;;;;6239000;28;20038;-74
2021/08/02 13:47:55;;;;;;;3.72;0.80;;;41.00;20.10;;;;;;6223717;28;20034;-75
2021/08/02 13:50:57;;;;;;;1.80;0.52;;;41.60;19.60;;;;;;6238289;28;20513;-74
2021/08/02 13:53:58;;;;;;;0.50;0.50;;;42.20;19.20;;;;;;6238352;28;20434;-75
2021/08/02 13:57:00;;;;;;;0.90;0.80;;;42.30;18.50;;;;;;6238313;28;20029;-75
2021/08/02 14:00:01;;;;;;;0.70;0.55;;;42.40;18.70;;;;;;6236528;28;20375;-75
2021/08/02 14:03:02;;;;;;;0.70;0.70;;;42.70;18.40;;;;;;6239213;28;20022;-74
2021/08/02 14:06:03;;;;;;;0.90;0.88;;;42.40;18.30;;;;;;6223096;28;20493;-75
2021/08/02 14:09:05;;;;;;;1.42;0.70;;;42.40;18.60;;;;;;6222981;28;20458;-74
2021/08/02 14:12:11;;;;;;;2.92;0.75;;;42.60;18.30;;;;;;6222662;28;20420;-75
2021/08/02 14:15:12;;;;;;;1.10;0.60;;;42.70;18.30;;;;;;6236922;28;20029;-74
2021/08/02 14:18:14;;;;;;;1.08;0.68;;;42.60;18.10;;;;;;6237658;28;20171;-74
2021/08/02 14:21:16;;;;;;;10.98;0.90;;;42.60;18.30;;;;;;6223797;28;20092;-74
2021/08/02 14:24:17;;;;;;;4.38;0.73;;;42.80;18.80;;;;;;6224141;28;20097;-75
2021/08/02 14:27:21;;;;;;;0.90;0.70;;;43.10;18.10;;;;;;6238316;28;20046;-75
2021/08/02 14:30:23;;;;;;;1.08;0.63;;;43.00;18.00;;;;;;6223627;28;20050;-75
2021/08/02 14:33:24;;;;;;;0.80;0.60;;;43.00;17.90;;;;;;6240359;28;20048;-74
2021/08/02 14:36:26;;;;;;;0.80;0.70;;;42.90;17.80;;;;;;6237962;28;20470;-75
2021/08/02 14:39:29;;;;;;;1.95;0.70;;;43.00;17.70;;;;;;6238399;28;20076;-75
2021/08/02 14:42:33;;;;;;;1.20;0.98;;;42.90;17.70;;;;;;6223213;28;20463;-75
2021/08/02 14:45:40;;;;;;;0.60;0.60;;;43.10;17.80;;;;;;6222731;28;20478;-75
2021/08/02 14:48:43;;;;;;;;;;;43.30;17.50;;;;;;6238503;28;20057;-74
2021/08/02 14:51:49;;;;;;;4.05;0.70;;;43.30;17.90;;;;;;6222081;28;19917;-76
2021/08/02 14:54:50;;;;;;;3.40;1.05;;;42.80;17.70;;;;;;6238505;28;20030;-74
2021/08/02 14:57:51;;;;;;;1.45;0.70;;;41.40;18.50;;;;;;6222284;28;20054;-74
2021/08/02 15:00:53;;;;;;;4.60;0.75;;;40.00;19.50;;;;;;6238547;28;20049;-74
2021/08/02 15:03:56;;;;;;;0.85;0.70;;;38.50;20.50;;;;;;6224126;28;20040;-74
2021/08/02 15:07:00;;;;;;;0.88;0.70;;;37.10;21.60;;;;;;6223175;28;20045;-74
2021/08/02 15:10:02;;;;;;;0.75;0.50;;;35.90;22.60;;;;;;6238229;28;20503;-74
2021/08/02 15:13:04;;;;;;;1.23;0.50;;;34.90;23.60;;;;;;6238285;28;20079;-74
2021/08/02 15:16:10;;;;;;;1.02;0.52;;;34.00;24.50;;;;;;6238300;28;20037;-74
2021/08/02 15:19:18;;;;;;;0.80;0.60;;;33.10;25.40;;;;;;6237727;28;20038;-74
2021/08/02 15:22:23;;;;;;;3.13;0.57;;;32.40;26.10;;;;;;6223001;28;20054;-75
2021/08/02 15:25:24;;;;;;;0.50;0.50;;;31.90;26.60;;;;;;6238270;28;20161;-75
2021/08/02 15:28:26;;;;;;;2.78;0.60;;;31.50;27.30;;;;;;6237526;28;20157;-75
2021/08/02 15:31:28;;;;;;;1.25;0.75;;;31.50;27.40;;;;;;6237895;28;20108;-75
2021/08/02 15:34:31;;;;;;;2.15;0.70;;;32.70;26.40;;;;;;6223441;28;20038;-75
2021/08/02 15:37:36;;;;;;;0.90;0.68;;;34.20;25.10;;;;;;6221461;28;20034;-74
2021/08/02 15:40:44;;;;;;;1.42;0.55;;;35.60;23.70;;;;;;6241705;28;20029;-74
2021/08/02 15:44:04;;;;;;;0.60;0.60;;;36.60;22.70;;;;;;6226083;28;20038;-75
2021/08/02 15:47:07;;;;;;;1.80;0.93;;;37.40;21.80;;;;;;6226990;28;20044;-75
2021/08/02 15:50:09;;;;;;;1.45;0.60;;;38.00;21.30;;;;;;6225749;28;20144;-74
2021/08/02 15:53:14;;;;;;;1.50;1.17;;;38.50;21.00;;;;;;6227065;28;20034;-75
2021/08/02 15:56:17;;;;;;;1.27;0.60;;;38.90;20.70;;;;;;6242310;28;20121;-75
2021/08/02 15:59:22;;;;;;;1.45;0.90;;;39.40;20.40;;;;;;6225336;28;20042;-74
2021/08/02 16:02:32;;;;;;;0.77;0.50;;;39.60;20.20;;;;;;6242838;28;20038;-74